Time;durP1;ratioP1;P1;durP2;ratioP2;P2;SDS_P1;SDS_P2;PMS_P1;PMS_P2;Temp;Humidity;BMP_temperature;BMP_pressure;BME280_temperature;BME280_humidity;BME280_pressure;Samples;Min_cycle;Max_cycle;Signal;HPM_P1;HPM_P2
2022/04/16 00:01:09;;;;;;;9.00;4.03;;;;;;;;;;5021723;28;20108;-88
2022/04/16 00:03:38;;;;;;;9.77;4.47;;;;;;;;;;5024844;28;20022;-87
2022/04/16 00:06:03;;;;;;;;;;;;;;;;;;5022378;28;20060;-87
2022/04/16 00:08:29;;;;;;;9.13;3.80;;;;;;;;;;5019506;28;19905;-88
2022/04/16 00:10:55;;;;;;;8.38;4.18;;;;;;;;;;5019808;28;20053;-89
2022/04/16 00:13:21;;;;;;;8.07;4.07;;;;;;;;;;5024605;28;20021;-90
2022/04/16 00:15:49;;;;;;;10.52;4.28;;;;;;;;;;5032060;28;20540;-89
2022/04/16 00:18:14;;;;;;;8.40;4.05;;;;;;;;;;5024998;28;20030;-90
2022/04/16 00:20:40;;;;;;;10.07;4.72;;;;;;;;;;5020086;28;20064;-89
2022/04/16 00:23:05;;;;;;;7.57;4.38;;;;;;;;;;5018549;28;20025;-90
2022/04/16 00:25:34;;;;;;;10.52;4.32;;;;;;;;;;5019805;28;20033;-90
2022/04/16 00:27:59;;;;;;;7.78;4.10;;;;;;;;;;5019064;28;20041;-91
2022/04/16 00:30:24;;;;;;;7.05;3.25;;;;;;;;;;5020049;28;20029;-89
2022/04/16 00:32:54;;;;;;;6.50;3.53;;;;;;;;;;5019980;28;20026;-89
2022/04/16 00:35:19;;;;;;;8.15;4.18;;;;;;;;;;5021089;28;20022;-90
2022/04/16 00:37:46;;;;;;;8.15;3.70;;;;;;;;;;5020467;28;20021;-90
2022/04/16 00:40:11;;;;;;;7.85;3.42;;;;;;;;;;5019960;28;20033;-90
2022/04/16 00:42:37;;;;;;;6.47;3.47;;;;;;;;;;5021686;28;20105;-88
2022/04/16 00:45:02;;;;;;;7.95;4.20;;;;;;;;;;5023337;28;20573;-89
2022/04/16 00:47:28;;;;;;;9.20;3.47;;;;;;;;;;5025122;28;20045;-88
2022/04/16 01:28:54;;;;;;;6.05;2.90;;;;;;;;;;5897516;23;20036;-84
2022/04/16 02:25:49;;;;;;;3.92;1.95;;;;;;;;;;5072815;23;20133;-71
2022/04/16 02:28:14;;;;;;;5.47;1.80;;;;;;;;;;4955534;28;20530;-73
2022/04/16 02:30:40;;;;;;;3.38;1.65;;;;;;;;;;4938206;29;20031;-72
2022/04/16 02:33:06;;;;;;;4.55;1.60;;;;;;;;;;4938041;29;20027;-71
2022/04/16 02:35:32;;;;;;;5.57;1.67;;;;;;;;;;4955195;28;20151;-72
2022/04/16 02:37:57;;;;;;;8.82;2.25;;;;;;;;;;4955187;29;20102;-71
2022/04/16 02:40:22;;;;;;;3.78;1.63;;;;;;;;;;4955202;29;20431;-72
2022/04/16 02:42:47;;;;;;;6.07;1.90;;;;;;;;;;4937739;29;20027;-71
2022/04/16 02:47:58;;;;;;;7.53;2.17;;;;;;;;;;4955084;28;20391;-73
2022/04/16 02:50:25;;;;;;;3.97;1.80;;;;;;;;;;4955301;28;20583;-72
2022/04/16 02:52:54;;;;;;;5.40;2.00;;;;;;;;;;4954834;28;20019;-73
2022/04/16 02:55:20;;;;;;;10.45;2.25;;;;;;;;;;4954844;28;20023;-73
2022/04/16 02:57:45;;;;;;;7.25;2.20;;;;;;;;;;4954868;28;20029;-71
2022/04/16 03:00:11;;;;;;;7.40;2.30;;;;;;;;;;4937611;29;20363;-71
2022/04/16 03:02:37;;;;;;;6.57;2.20;;;;;;;;;;4954790;28;20055;-73
2022/04/16 03:05:03;;;;;;;3.80;1.90;;;;;;;;;;4954633;28;20487;-72
2022/04/16 03:07:28;;;;;;;4.90;1.63;;;;;;;;;;4954658;29;20023;-71
2022/04/16 03:09:54;;;;;;;7.30;2.72;;;;;;;;;;4954690;28;20037;-72
2022/04/16 03:12:19;;;;;;;6.45;2.08;;;;;;;;;;4937463;29;20267;-71
2022/04/16 03:17:35;;;;;;;4.30;1.70;;;;;;;;;;4954523;28;20078;-74
2022/04/16 03:20:04;;;;;;;9.30;2.00;;;;;;;;;;4937224;29;20107;-72
2022/04/16 03:22:30;;;;;;;5.93;2.00;;;;;;;;;;4954425;28;20091;-72
2022/04/16 03:24:55;;;;;;;5.10;1.75;;;;;;;;;;4954102;28;20458;-73
2022/04/16 03:27:23;;;;;;;6.60;1.70;;;;;;;;;;4937149;29;20031;-73
2022/04/16 03:29:48;;;;;;;3.37;1.43;;;;;;;;;;4954409;28;20023;-72
2022/04/16 03:32:14;;;;;;;7.38;2.15;;;;;;;;;;4937287;29;20026;-73
2022/04/16 03:34:40;;;;;;;4.15;1.85;;;;;;;;;;4936759;29;20475;-73
2022/04/16 03:37:05;;;;;;;5.97;1.80;;;;;;;;;;4936943;29;20474;-73
2022/04/16 03:39:31;;;;;;;4.30;1.40;;;;;;;;;;4954250;29;20019;-72
2022/04/16 03:41:56;;;;;;;3.70;1.65;;;;;;;;;;4954231;28;20476;-73
2022/04/16 03:44:21;;;;;;;6.32;1.90;;;;;;;;;;4936772;29;20030;-72
2022/04/16 03:46:46;;;;;;;5.95;2.20;;;;;;;;;;4954130;29;20026;-74
2022/04/16 03:49:12;;;;;;;6.10;2.00;;;;;;;;;;4936790;28;20500;-73
2022/04/16 03:51:37;;;;;;;5.80;1.70;;;;;;;;;;4936847;29;20027;-73
2022/04/16 04:02:14;;;;;;;5.80;2.08;;;;;;;;;;4954162;28;20033;-74
2022/04/16 04:04:40;;;;;;;5.78;2.15;;;;;;;;;;4953956;28;20106;-72
2022/04/16 04:07:06;;;;;;;5.15;1.60;;;;;;;;;;4954040;28;20035;-71
2022/04/16 04:09:31;;;;;;;4.18;1.75;;;;;;;;;;4936697;29;20459;-71
2022/04/16 04:11:56;;;;;;;4.18;1.70;;;;;;;;;;4936570;29;20083;-73
2022/04/16 04:14:22;;;;;;;3.97;1.60;;;;;;;;;;4936562;28;20447;-73
2022/04/16 04:16:47;;;;;;;3.70;1.60;;;;;;;;;;4936683;29;20027;-73
2022/04/16 04:19:12;;;;;;;5.38;1.80;;;;;;;;;;4953762;28;20023;-73
2022/04/16 04:21:38;;;;;;;5.38;1.80;;;;;;;;;;4953716;28;20386;-73
2022/04/16 04:24:03;;;;;;;4.22;1.80;;;;;;;;;;4953412;28;20066;-73
2022/04/16 04:26:28;;;;;;;4.35;1.88;;;;;;;;;;4953698;28;20016;-73
2022/04/16 04:28:54;;;;;;;7.70;1.92;;;;;;;;;;4953573;28;20043;-74
2022/04/16 04:31:20;;;;;;;4.15;1.77;;;;;;;;;;4953722;28;20015;-72
2022/04/16 04:33:45;;;;;;;8.32;2.67;;;;;;;;;;4953409;28;20019;-74
2022/04/16 04:36:10;;;;;;;3.92;1.52;;;;;;;;;;4953618;28;20019;-73
2022/04/16 04:38:35;;;;;;;5.88;1.65;;;;;;;;;;4939185;29;20025;-71
2022/04/16 04:41:00;;;;;;;8.02;1.88;;;;;;;;;;4940160;29;20109;-71
2022/04/16 04:43:26;;;;;;;7.28;1.83;;;;;;;;;;4957200;28;20015;-73
2022/04/16 04:45:51;;;;;;;9.07;2.08;;;;;;;;;;4957313;28;20431;-72
2022/04/16 04:48:16;;;;;;;3.65;1.73;;;;;;;;;;4957255;28;20054;-72
2022/04/16 04:50:41;;;;;;;7.90;1.70;;;;;;;;;;4957245;28;20050;-72
2022/04/16 04:53:06;;;;;;;5.65;1.65;;;;;;;;;;4957054;28;20030;-73
2022/04/16 04:55:32;;;;;;;4.78;1.73;;;;;;;;;;4957026;28;20019;-73
2022/04/16 04:57:57;;;;;;;4.80;1.67;;;;;;;;;;4956925;28;20028;-72
2022/04/16 05:00:22;;;;;;;5.00;1.63;;;;;;;;;;4939883;29;20024;-72
2022/04/16 05:02:48;;;;;;;3.97;1.80;;;;;;;;;;4956844;28;20023;-72
2022/04/16 05:05:14;;;;;;;5.90;1.73;;;;;;;;;;4939601;29;20034;-72
2022/04/16 05:07:39;;;;;;;5.03;1.80;;;;;;;;;;4939689;29;20471;-72
2022/04/16 05:10:05;;;;;;;6.70;1.83;;;;;;;;;;4939716;29;20027;-72
2022/04/16 05:12:30;;;;;;;4.47;1.67;;;;;;;;;;4957306;29;20037;-72
2022/04/16 05:14:55;;;;;;;3.88;1.88;;;;;;;;;;4956621;28;20031;-72
2022/04/16 05:17:20;;;;;;;5.10;2.05;;;;;;;;;;4956630;28;20055;-72
2022/04/16 05:19:46;;;;;;;3.92;1.73;;;;;;;;;;4956812;29;20434;-73
2022/04/16 05:22:11;;;;;;;3.80;1.80;;;;;;;;;;4956692;29;20098;-73
2022/04/16 05:24:36;;;;;;;5.95;1.70;;;;;;;;;;4939279;29;20027;-73
2022/04/16 05:27:01;;;;;;;3.92;1.80;;;;;;;;;;4956596;28;20019;-71
2022/04/16 05:29:32;;;;;;;4.82;1.70;;;;;;;;;;4956578;28;20030;-71
2022/04/16 05:31:59;;;;;;;6.35;1.92;;;;;;;;;;4939344;29;20097;-72
2022/04/16 05:34:25;;;;;;;5.28;1.50;;;;;;;;;;4956308;28;20475;-71
2022/04/16 05:36:50;;;;;;;6.20;1.90;;;;;;;;;;4939066;29;20019;-72
2022/04/16 05:39:16;;;;;;;7.32;2.00;;;;;;;;;;4956450;29;20030;-72
2022/04/16 05:41:42;;;;;;;8.15;2.05;;;;;;;;;;4956235;28;20103;-73
2022/04/16 05:44:07;;;;;;;3.53;1.88;;;;;;;;;;4956029;28;20063;-72
2022/04/16 05:46:32;;;;;;;5.28;2.90;;;;;;;;;;4956045;28;20019;-72
2022/04/16 05:48:57;;;;;;;8.35;2.15;;;;;;;;;;4955089;28;20030;-72
2022/04/16 05:51:23;;;;;;;5.82;1.80;;;;;;;;;;4956094;28;20467;-72
2022/04/16 05:53:49;;;;;;;5.57;1.92;;;;;;;;;;4938520;28;20030;-73
2022/04/16 05:56:14;;;;;;;3.95;1.40;;;;;;;;;;4955952;28;20027;-73
2022/04/16 05:58:40;;;;;;;4.68;1.40;;;;;;;;;;4938541;28;20075;-73
2022/04/16 06:01:09;;;;;;;3.72;1.45;;;;;;;;;;4955926;28;20104;-72
2022/04/16 06:03:36;;;;;;;3.25;1.70;;;;;;;;;;4938598;29;20119;-72
2022/04/16 06:06:04;;;;;;;4.95;2.30;;;;;;;;;;4938472;29;20047;-72
2022/04/16 06:08:30;;;;;;;3.55;1.85;;;;;;;;;;4955907;28;20118;-72
2022/04/16 06:10:55;;;;;;;4.15;1.60;;;;;;;;;;4955659;28;20195;-71
2022/04/16 06:13:20;;;;;;;2.80;1.50;;;;;;;;;;4955302;29;20471;-72
2022/04/16 06:15:45;;;;;;;4.85;1.70;;;;;;;;;;4955532;28;20026;-72
2022/04/16 06:18:11;;;;;;;5.15;1.77;;;;;;;;;;4938402;29;20031;-72
2022/04/16 06:20:36;;;;;;;3.15;1.58;;;;;;;;;;4938333;29;20023;-71
2022/04/16 06:23:02;;;;;;;9.18;2.45;;;;;;;;;;4938113;29;20069;-72
2022/04/16 06:25:27;;;;;;;4.18;1.70;;;;;;;;;;4955303;28;20039;-73
2022/04/16 06:27:54;;;;;;;4.68;1.98;;;;;;;;;;4955357;29;20094;-73
2022/04/16 06:30:19;;;;;;;4.07;1.60;;;;;;;;;;4937882;29;20027;-73
2022/04/16 06:32:44;;;;;;;3.10;1.77;;;;;;;;;;4955204;29;20027;-71
2022/04/16 06:35:12;;;;;;;5.80;1.80;;;;;;;;;;4955207;28;20049;-73
2022/04/16 06:37:37;;;;;;;4.15;1.75;;;;;;;;;;4955476;28;20020;-73
2022/04/16 06:40:05;;;;;;;6.43;3.05;;;;;;;;;;4955704;28;20023;-73
2022/04/16 06:42:30;;;;;;;3.28;1.67;;;;;;;;;;4955225;29;20071;-71
2022/04/16 06:44:55;;;;;;;5.70;1.90;;;;;;;;;;4937695;29;20019;-72
2022/04/16 06:47:21;;;;;;;4.55;1.75;;;;;;;;;;4937805;29;20383;-71
2022/04/16 06:49:46;;;;;;;7.22;1.65;;;;;;;;;;4954905;29;20423;-73
2022/04/16 06:52:12;;;;;;;5.53;1.95;;;;;;;;;;4955207;28;20019;-72
2022/04/16 06:54:38;;;;;;;5.78;1.80;;;;;;;;;;4954651;28;20078;-72
2022/04/16 06:57:03;;;;;;;5.82;2.58;;;;;;;;;;4954828;28;20027;-72
2022/04/16 06:59:29;;;;;;;5.20;1.92;;;;;;;;;;4954974;28;20015;-72
2022/04/16 07:01:54;;;;;;;4.97;1.77;;;;;;;;;;4937328;29;20078;-72
2022/04/16 07:04:19;;;;;;;4.55;1.83;;;;;;;;;;4954545;28;20057;-72
2022/04/16 07:06:44;;;;;;;3.10;1.63;;;;;;;;;;4954725;28;20020;-72
2022/04/16 07:09:10;;;;;;;6.13;1.60;;;;;;;;;;4954377;28;20023;-72
2022/04/16 07:11:36;;;;;;;3.72;1.73;;;;;;;;;;4937533;29;20031;-72
2022/04/16 07:14:01;;;;;;;4.43;2.13;;;;;;;;;;4937050;28;20116;-73
2022/04/16 07:16:26;;;;;;;6.90;2.25;;;;;;;;;;4954471;29;20419;-73
2022/04/16 07:18:52;;;;;;;3.08;1.70;;;;;;;;;;4937195;29;20023;-73
2022/04/16 07:21:17;;;;;;;7.93;2.03;;;;;;;;;;4937048;29;20023;-72
2022/04/16 07:23:42;;;;;;;9.18;1.77;;;;;;;;;;4936640;28;20079;-73
2022/04/16 07:26:08;;;;;;;3.95;1.77;;;;;;;;;;4937315;28;20016;-72
2022/04/16 07:28:33;;;;;;;2.80;1.48;;;;;;;;;;4954374;28;20042;-71
2022/04/16 07:30:58;;;;;;;6.43;2.60;;;;;;;;;;4954282;29;20495;-73
2022/04/16 07:33:27;;;;;;;3.55;1.80;;;;;;;;;;4954076;28;20029;-72
2022/04/16 07:35:52;;;;;;;9.13;1.90;;;;;;;;;;4936816;29;20039;-73
2022/04/16 07:38:18;;;;;;;9.70;4.13;;;;;;;;;;4936770;29;20082;-72
2022/04/16 07:40:44;;;;;;;3.45;1.50;;;;;;;;;;4953857;28;20047;-73
2022/04/16 07:43:09;;;;;;;7.20;2.53;;;;;;;;;;4936925;29;20086;-72
2022/04/16 07:45:34;;;;;;;5.20;1.67;;;;;;;;;;4936693;29;20027;-72
2022/04/16 07:48:00;;;;;;;7.50;1.63;;;;;;;;;;4953937;29;20031;-73
2022/04/16 07:50:25;;;;;;;5.20;1.75;;;;;;;;;;4953841;28;20058;-73
2022/04/16 07:52:50;;;;;;;5.85;1.58;;;;;;;;;;4953681;28;20019;-72
2022/04/16 07:55:15;;;;;;;2.80;1.40;;;;;;;;;;4953771;28;20022;-73
2022/04/16 07:57:41;;;;;;;4.70;1.40;;;;;;;;;;4936640;29;20439;-74
2022/04/16 08:00:06;;;;;;;2.47;1.30;;;;;;;;;;4936773;29;20502;-73
2022/04/16 08:02:32;;;;;;;5.57;1.20;;;;;;;;;;4953711;28;20542;-73
2022/04/16 08:04:58;;;;;;;3.28;1.48;;;;;;;;;;4953676;28;20034;-73
2022/04/16 08:07:23;;;;;;;3.67;1.40;;;;;;;;;;4936624;29;20031;-73
2022/04/16 08:09:49;;;;;;;3.50;1.20;;;;;;;;;;4936378;28;20032;-73
2022/04/16 08:12:14;;;;;;;3.67;1.42;;;;;;;;;;4935949;29;20019;-73
2022/04/16 08:14:39;;;;;;;4.95;1.30;;;;;;;;;;4953653;28;20497;-73
2022/04/16 08:17:05;;;;;;;5.72;1.38;;;;;;;;;;4953716;28;20550;-72
2022/04/16 08:19:30;;;;;;;3.25;1.15;;;;;;;;;;4936399;29;20031;-72
2022/04/16 08:21:56;;;;;;;5.20;1.40;;;;;;;;;;4936414;29;20569;-72
2022/04/16 08:26:56;;;;;;;4.00;1.50;;;;;;;;;;4973588;23;20048;-83
2022/04/16 08:29:22;;;;;;;3.65;1.70;;;;;;;;;;4940841;29;20082;-86
2022/04/16 08:31:47;;;;;;;10.02;1.50;;;;;;;;;;4956134;29;20046;-86
2022/04/16 08:34:13;;;;;;;3.00;1.30;;;;;;;;;;4955537;29;20471;-87
2022/04/16 08:36:38;;;;;;;2.88;1.30;;;;;;;;;;4955352;28;20086;-87
2022/04/16 08:39:04;;;;;;;4.00;1.55;;;;;;;;;;4938836;29;20023;-89
2022/04/16 08:41:30;;;;;;;5.10;1.60;;;;;;;;;;4955922;28;20019;-88
2022/04/16 08:43:56;;;;;;;2.20;1.10;;;;;;;;;;4955794;28;20107;-88
2022/04/16 08:46:22;;;;;;;2.70;1.17;;;;;;;;;;4955587;28;20022;-87
2022/04/16 08:48:48;;;;;;;4.70;1.38;;;;;;;;;;4938317;29;20027;-88
2022/04/16 08:51:15;;;;;;;4.53;1.30;;;;;;;;;;4938452;29;20475;-88
2022/04/16 08:53:40;;;;;;;4.32;1.20;;;;;;;;;;4938067;29;20055;-90
2022/04/16 08:56:06;;;;;;;2.95;1.10;;;;;;;;;;4937667;29;20494;-89
2022/04/16 08:58:31;;;;;;;3.50;1.38;;;;;;;;;;4937675;28;20038;-87
2022/04/16 09:00:56;;;;;;;4.45;1.67;;;;;;;;;;4938481;29;20079;-87
2022/04/16 09:03:22;;;;;;;4.88;1.60;;;;;;;;;;4939380;29;20398;-89
2022/04/16 09:05:53;;;;;;;1.65;0.98;;;;;;;;;;4939887;29;20020;-88
2022/04/16 09:08:26;;;;;;;4.22;1.10;;;;;;;;;;4939080;29;20135;-90
2022/04/16 09:10:51;;;;;;;3.28;1.08;;;;;;;;;;4955058;28;20030;-89
2022/04/16 09:13:20;;;;;;;5.10;1.23;;;;;;;;;;4937746;29;20106;-89
2022/04/16 09:15:46;;;;;;;4.13;1.38;;;;;;;;;;4938217;29;20031;-87
2022/04/16 09:18:13;;;;;;;3.72;1.88;;;;;;;;;;4937986;29;20119;-87
2022/04/16 09:20:39;;;;;;;6.05;1.60;;;;;;;;;;4937747;29;20471;-87
2022/04/16 09:23:18;;;;;;;4.20;1.27;;;;;;;;;;4937357;29;20023;-88
2022/04/16 09:25:43;;;;;;;3.65;1.50;;;;;;;;;;4939982;29;20482;-89
2022/04/16 09:28:08;;;;;;;3.35;1.40;;;;;;;;;;4940058;29;20035;-88
2022/04/16 09:30:34;;;;;;;6.05;1.27;;;;;;;;;;4956803;28;20042;-85
2022/04/16 09:33:00;;;;;;;4.75;1.25;;;;;;;;;;4939506;29;20111;-88
2022/04/16 09:35:26;;;;;;;2.60;1.10;;;;;;;;;;4939323;29;20051;-87
2022/04/16 09:37:55;;;;;;;2.40;1.20;;;;;;;;;;4939221;29;20442;-88
2022/04/16 09:40:23;;;;;;;2.83;1.10;;;;;;;;;;4956373;29;20023;-88
2022/04/16 09:42:52;;;;;;;3.10;1.15;;;;;;;;;;4938872;29;20118;-89
2022/04/16 09:45:17;;;;;;;3.97;1.10;;;;;;;;;;4939119;28;20027;-89
2022/04/16 09:47:42;;;;;;;5.97;2.00;;;;;;;;;;4956153;29;20163;-89
2022/04/16 09:50:08;;;;;;;2.28;1.13;;;;;;;;;;4939093;29;20170;-89
2022/04/16 09:52:34;;;;;;;6.10;2.15;;;;;;;;;;4939828;29;20023;-89
2022/04/16 09:55:01;;;;;;;3.90;1.40;;;;;;;;;;4941860;28;20554;-87
2022/04/16 09:57:29;;;;;;;5.25;1.42;;;;;;;;;;4943474;29;20023;-88
2022/04/16 09:59:54;;;;;;;2.85;1.15;;;;;;;;;;4959912;29;20032;-88
2022/04/16 10:02:20;;;;;;;2.78;1.02;;;;;;;;;;4941386;29;20380;-88
2022/04/16 10:04:46;;;;;;;7.05;2.17;;;;;;;;;;4941300;29;20061;-87
2022/04/16 10:07:13;;;;;;;5.60;1.20;;;;;;;;;;4942218;29;20023;-86
2022/04/16 10:09:41;;;;;;;3.10;1.52;;;;;;;;;;4941561;29;20094;-89
2022/04/16 10:15:05;;;;;;;5.85;1.50;;;;;;;;;;4959742;28;20027;-88
2022/04/16 10:17:58;;;;;;;2.40;1.17;;;;;;;;;;4941638;28;20031;-88
2022/04/16 10:20:25;;;;;;;3.33;1.20;;;;;;;;;;4939688;29;20039;-88
2022/04/16 10:22:58;;;;;;;6.65;1.10;;;;;;;;;;4941577;29;20019;-86
2022/04/16 10:25:31;;;;;;;2.30;1.13;;;;;;;;;;4941417;29;20047;-85
2022/04/16 10:28:00;;;;;;;2.28;1.38;;;;;;;;;;4942348;28;20110;-88
2022/04/16 10:30:34;;;;;;;6.38;2.50;;;;;;;;;;4942060;28;20054;-87
2022/04/16 10:33:03;;;;;;;2.95;1.10;;;;;;;;;;4942189;29;20073;-86
2022/04/16 10:35:28;;;;;;;3.05;1.10;;;;;;;;;;4958217;28;20023;-86
2022/04/16 10:37:54;;;;;;;4.28;1.00;;;;;;;;;;4941360;29;20046;-83
2022/04/16 10:40:20;;;;;;;7.63;3.33;;;;;;;;;;4958390;28;20031;-84
2022/04/16 10:42:57;;;;;;;2.15;1.05;;;;;;;;;;4957614;28;20084;-85
2022/04/16 10:45:22;;;;;;;3.42;1.23;;;;;;;;;;4957320;28;20019;-85
2022/04/16 10:47:49;;;;;;;7.23;2.10;;;;;;;;;;4940380;29;20416;-83
2022/04/16 10:50:15;;;;;;;3.75;1.45;;;;;;;;;;4957398;28;20277;-85
2022/04/16 10:52:51;;;;;;;4.60;1.13;;;;;;;;;;4955166;28;20051;-83
2022/04/16 10:55:16;;;;;;;4.32;1.33;;;;;;;;;;4954995;28;20035;-84
2022/04/16 10:57:42;;;;;;;6.78;1.75;;;;;;;;;;4955585;28;20028;-86
2022/04/16 11:00:14;;;;;;;6.68;2.25;;;;;;;;;;4955179;29;20110;-85
2022/04/16 11:02:39;;;;;;;5.68;2.35;;;;;;;;;;4955305;28;20042;-85
2022/04/16 11:05:08;;;;;;;5.30;1.50;;;;;;;;;;4937565;28;20082;-86
2022/04/16 11:07:35;;;;;;;4.03;1.20;;;;;;;;;;4937439;29;20395;-85
2022/04/16 11:10:00;;;;;;;2.88;0.90;;;;;;;;;;4954333;28;20041;-86
2022/04/16 11:12:26;;;;;;;2.97;1.05;;;;;;;;;;4954363;28;20526;-85
2022/04/16 11:14:52;;;;;;;2.10;0.90;;;;;;;;;;4954523;28;20023;-85
2022/04/16 11:17:19;;;;;;;3.55;1.20;;;;;;;;;;4954446;28;20023;-84
2022/04/16 11:19:44;;;;;;;3.10;1.13;;;;;;;;;;4954613;28;20163;-84
2022/04/16 11:22:10;;;;;;;3.95;1.20;;;;;;;;;;4954338;28;20486;-83
2022/04/16 11:24:35;;;;;;;2.80;1.08;;;;;;;;;;4936788;28;20023;-84
2022/04/16 11:35:13;;;;;;;2.30;0.90;;;;;;;;;;4954172;28;20050;-85
2022/04/16 11:37:38;;;;;;;3.83;0.95;;;;;;;;;;4936819;29;20411;-84
2022/04/16 11:40:05;;;;;;;4.28;1.27;;;;;;;;;;4953977;28;20026;-83
2022/04/16 11:42:31;;;;;;;4.70;1.40;;;;;;;;;;4936482;29;20019;-84
2022/04/16 11:44:56;;;;;;;3.35;1.42;;;;;;;;;;4953778;28;20471;-83
2022/04/16 11:47:22;;;;;;;4.60;1.27;;;;;;;;;;4953373;28;20038;-83
2022/04/16 11:49:54;;;;;;;3.70;1.02;;;;;;;;;;4954085;28;20102;-83
2022/04/16 11:52:26;;;;;;;2.22;0.95;;;;;;;;;;4953770;29;20023;-83
2022/04/16 11:55:02;;;;;;;4.55;1.17;;;;;;;;;;4954203;28;20019;-83
2022/04/16 11:57:27;;;;;;;4.88;1.17;;;;;;;;;;4953706;28;20475;-81
2022/04/16 11:59:56;;;;;;;3.07;1.30;;;;;;;;;;4953902;28;20035;-81
2022/04/16 12:02:28;;;;;;;3.85;1.33;;;;;;;;;;4953622;28;20737;-82
2022/04/16 12:04:53;;;;;;;2.65;1.00;;;;;;;;;;4936090;29;20082;-82
2022/04/16 12:07:18;;;;;;;3.10;1.20;;;;;;;;;;4953712;28;20415;-83
2022/04/16 12:09:45;;;;;;;2.80;1.05;;;;;;;;;;4953739;28;20265;-82
2022/04/16 12:12:14;;;;;;;3.75;1.55;;;;;;;;;;4954332;28;20483;-81
2022/04/16 12:14:49;;;;;;;3.70;1.10;;;;;;;;;;4953461;28;20045;-81
2022/04/16 12:17:22;;;;;;;4.00;1.13;;;;;;;;;;4953336;28;20027;-83
2022/04/16 12:19:55;;;;;;;4.13;1.02;;;;;;;;;;4953739;29;20026;-83
2022/04/16 12:22:20;;;;;;;2.90;1.13;;;;;;;;;;4953143;29;20471;-83
2022/04/16 12:24:45;;;;;;;2.67;0.90;;;;;;;;;;4953110;28;20147;-82
2022/04/16 12:27:10;;;;;;;3.70;1.13;;;;;;;;;;4936442;29;20330;-82
2022/04/16 12:29:36;;;;;;;2.28;0.88;;;;;;;;;;4953444;29;20249;-81
2022/04/16 12:32:01;;;;;;;5.32;1.67;;;;;;;;;;4953273;28;20066;-83
2022/04/16 12:34:26;;;;;;;3.97;1.30;;;;;;;;;;4953223;28;20028;-82
2022/04/16 12:36:52;;;;;;;3.22;0.93;;;;;;;;;;4953172;28;20475;-82
2022/04/16 12:39:18;;;;;;;3.05;1.10;;;;;;;;;;4953402;28;20015;-81
2022/04/16 12:41:43;;;;;;;3.50;1.15;;;;;;;;;;4953542;28;20023;-83
2022/04/16 12:44:08;;;;;;;2.80;1.02;;;;;;;;;;4953071;29;20534;-82
2022/04/16 12:46:33;;;;;;;4.18;1.35;;;;;;;;;;4953638;28;20079;-82
2022/04/16 12:48:58;;;;;;;3.80;1.00;;;;;;;;;;4953207;29;20031;-82
2022/04/16 12:51:24;;;;;;;2.83;1.07;;;;;;;;;;4953140;29;20055;-82
2022/04/16 12:53:49;;;;;;;2.58;0.95;;;;;;;;;;4953057;29;20219;-82
2022/04/16 12:56:15;;;;;;;2.85;0.90;;;;;;;;;;4953880;28;20027;-82
2022/04/16 12:58:40;;;;;;;3.05;0.77;;;;;;;;;;4954835;28;20023;-81
2022/04/16 13:01:06;;;;;;;1.93;1.10;;;;;;;;;;4957190;29;20501;-82
2022/04/16 13:03:31;;;;;;;100.82;8.23;;;;;;;;;;4956901;28;20019;-81
2022/04/16 13:05:56;;;;;;;2.27;0.80;;;;;;;;;;4956981;28;20093;-82
2022/04/16 13:08:24;;;;;;;2.87;0.87;;;;;;;;;;4957171;28;20755;-82
2022/04/16 13:10:49;;;;;;;5.75;1.40;;;;;;;;;;4957537;28;20253;-81
2022/04/16 13:13:14;;;;;;;4.03;0.90;;;;;;;;;;4957558;28;20029;-81
2022/04/16 13:15:39;;;;;;;1.98;1.00;;;;;;;;;;4956704;28;20278;-80
2022/04/16 13:18:06;;;;;;;5.07;1.00;;;;;;;;;;4939421;29;20057;-79
2022/04/16 13:20:31;;;;;;;3.78;1.10;;;;;;;;;;4956645;29;20020;-78
2022/04/16 13:22:56;;;;;;;3.90;0.88;;;;;;;;;;4956454;28;20431;-79
2022/04/16 13:25:22;;;;;;;2.73;1.00;;;;;;;;;;4938914;28;20020;-79
2022/04/16 13:27:47;;;;;;;1.98;0.70;;;;;;;;;;4956569;28;20289;-80
2022/04/16 13:30:12;;;;;;;1.75;0.70;;;;;;;;;;4956261;28;20019;-79
2022/04/16 13:32:37;;;;;;;3.60;1.50;;;;;;;;;;4938939;29;20079;-78
2022/04/16 13:35:02;;;;;;;3.07;0.90;;;;;;;;;;4939076;28;20249;-79
2022/04/16 13:37:28;;;;;;;3.25;1.00;;;;;;;;;;4956059;29;20023;-80
2022/04/16 13:42:37;;;;;;;3.92;1.60;;;;;;;;;;4956323;29;20276;-78
2022/04/16 13:45:02;;;;;;;5.80;2.37;;;;;;;;;;4938710;28;20019;-79
2022/04/16 13:47:28;;;;;;;3.60;1.17;;;;;;;;;;4938824;29;20023;-79
2022/04/16 13:49:53;;;;;;;3.55;1.17;;;;;;;;;;4955872;28;20438;-80
2022/04/16 13:52:18;;;;;;;2.03;0.80;;;;;;;;;;4955889;28;20535;-79
2022/04/16 13:54:44;;;;;;;2.37;0.77;;;;;;;;;;4955709;28;20019;-79
2022/04/16 13:57:09;;;;;;;3.33;1.25;;;;;;;;;;4955857;28;20027;-79
2022/04/16 13:59:36;;;;;;;5.18;1.20;;;;;;;;;;4955890;29;20019;-79
2022/04/16 14:02:01;;;;;;;3.45;1.23;;;;;;;;;;4939361;29;20012;-80
2022/04/16 14:05:42;;;;;;;3.88;1.00;;;;;;;;;;4938094;29;20027;-80
2022/04/16 14:07:11;;;;;;;2.88;1.00;;;;;;;;;;4955602;28;20058;-78
2022/04/16 14:09:37;;;;;;;3.20;1.00;;;;;;;;;;4954820;28;20027;-78
2022/04/16 14:12:02;;;;;;;3.55;1.17;;;;;;;;;;4938256;29;20022;-79
2022/04/16 14:14:29;;;;;;;4.43;1.10;;;;;;;;;;4955524;29;20054;-79
2022/04/16 14:16:54;;;;;;;4.53;0.90;;;;;;;;;;4955938;28;20042;-78
2022/04/16 14:19:19;;;;;;;4.87;1.00;;;;;;;;;;4956451;28;20470;-81
2022/04/16 14:21:45;;;;;;;6.20;0.90;;;;;;;;;;4940145;29;20057;-80
2022/04/16 14:24:11;;;;;;;2.20;1.00;;;;;;;;;;4956159;29;20099;-80
2022/04/16 14:26:38;;;;;;;3.07;0.97;;;;;;;;;;4955391;28;20531;-78
2022/04/16 14:29:04;;;;;;;1.95;0.90;;;;;;;;;;4938186;29;20502;-79
2022/04/16 14:31:32;;;;;;;4.20;1.07;;;;;;;;;;4955550;29;20027;-82
2022/04/16 14:33:57;;;;;;;5.43;1.98;;;;;;;;;;4955023;28;20015;-80
2022/04/16 14:36:23;;;;;;;2.57;1.03;;;;;;;;;;4955466;28;20376;-79
2022/04/16 14:38:49;;;;;;;1.40;0.93;;;;;;;;;;4955810;28;20027;-80
2022/04/16 14:41:16;;;;;;;6.00;1.10;;;;;;;;;;4955964;29;20027;-80
2022/04/16 14:43:48;;;;;;;4.18;0.98;;;;;;;;;;4955066;29;20051;-81
2022/04/16 14:46:13;;;;;;;1.67;0.75;;;;;;;;;;4954742;28;20015;-81
2022/04/16 14:48:38;;;;;;;4.20;0.85;;;;;;;;;;4954925;28;20033;-81
2022/04/16 14:51:03;;;;;;;1.97;0.80;;;;;;;;;;4954881;29;20042;-81
2022/04/16 14:53:30;;;;;;;3.87;0.90;;;;;;;;;;4937819;29;20430;-80
2022/04/16 14:55:55;;;;;;;8.95;1.30;;;;;;;;;;4938186;29;20265;-81
2022/04/16 14:58:20;;;;;;;2.55;1.15;;;;;;;;;;4954918;28;20078;-79
2022/04/16 15:00:45;;;;;;;3.00;1.00;;;;;;;;;;4954649;29;20489;-80
2022/04/16 15:03:11;;;;;;;2.88;1.30;;;;;;;;;;4954386;28;20737;-81
2022/04/16 15:05:36;;;;;;;7.83;2.60;;;;;;;;;;4955125;28;20343;-83
2022/04/16 15:08:01;;;;;;;3.75;1.13;;;;;;;;;;4954549;28;20027;-80
2022/04/16 15:10:26;;;;;;;4.70;1.33;;;;;;;;;;4954589;28;20026;-80
2022/04/16 15:12:52;;;;;;;2.78;1.10;;;;;;;;;;4954835;29;20506;-81
2022/04/16 15:15:17;;;;;;;2.43;1.10;;;;;;;;;;4938032;28;20035;-80
2022/04/16 15:17:44;;;;;;;4.47;1.48;;;;;;;;;;4954990;29;20269;-79
2022/04/16 15:20:10;;;;;;;2.60;1.17;;;;;;;;;;4954890;29;20050;-81
2022/04/16 15:22:38;;;;;;;2.42;1.00;;;;;;;;;;4954228;28;20246;-80
2022/04/16 15:25:04;;;;;;;1.90;0.80;;;;;;;;;;4937068;28;20062;-81
2022/04/16 15:27:29;;;;;;;3.60;0.98;;;;;;;;;;4954324;29;20078;-80
2022/04/16 15:29:54;;;;;;;3.60;1.10;;;;;;;;;;4954553;28;20523;-81
2022/04/16 15:32:19;;;;;;;5.20;1.20;;;;;;;;;;4937019;28;20073;-81
2022/04/16 15:34:44;;;;;;;3.17;1.00;;;;;;;;;;4954401;29;20308;-81
2022/04/16 15:37:10;;;;;;;3.90;1.20;;;;;;;;;;4936949;29;20027;-79
2022/04/16 15:39:36;;;;;;;2.03;0.90;;;;;;;;;;4936946;29;20023;-79
2022/04/16 15:42:04;;;;;;;3.38;1.08;;;;;;;;;;4954903;28;20241;-80
2022/04/16 15:44:29;;;;;;;5.03;1.35;;;;;;;;;;4953992;29;20012;-81
2022/04/16 15:46:55;;;;;;;6.10;1.20;;;;;;;;;;4953936;28;20146;-79
2022/04/16 15:49:20;;;;;;;3.22;1.20;;;;;;;;;;4937051;29;20016;-81
2022/04/16 15:51:47;;;;;;;2.80;1.02;;;;;;;;;;4954879;29;20027;-81
2022/04/16 15:54:12;;;;;;;2.50;1.20;;;;;;;;;;4954191;28;20031;-81
2022/04/16 15:56:37;;;;;;;2.83;1.13;;;;;;;;;;4954406;28;20020;-81
2022/04/16 15:59:02;;;;;;;4.20;1.30;;;;;;;;;;4954294;29;20028;-81
2022/04/16 16:01:28;;;;;;;4.25;1.00;;;;;;;;;;4936921;29;20055;-81
2022/04/16 16:03:53;;;;;;;5.22;1.48;;;;;;;;;;4954394;28;20026;-79
2022/04/16 16:06:18;;;;;;;2.90;1.20;;;;;;;;;;4953876;28;20510;-83
2022/04/16 16:08:51;;;;;;;3.30;1.63;;;;;;;;;;4954460;28;20078;-82
2022/04/16 16:11:16;;;;;;;3.20;1.10;;;;;;;;;;4953874;29;20022;-84
2022/04/16 16:13:43;;;;;;;3.55;1.40;;;;;;;;;;4955040;28;20475;-85
2022/04/16 16:16:08;;;;;;;3.85;1.30;;;;;;;;;;4954518;28;20037;-82
2022/04/16 16:18:33;;;;;;;6.68;2.47;;;;;;;;;;4938142;29;20023;-84
2022/04/16 16:20:58;;;;;;;2.27;0.90;;;;;;;;;;4955256;28;20055;-84
2022/04/16 16:23:24;;;;;;;3.92;1.40;;;;;;;;;;4955947;29;20023;-82
2022/04/16 16:25:50;;;;;;;6.50;1.40;;;;;;;;;;4956639;28;20099;-80
2022/04/16 16:28:15;;;;;;;2.60;1.00;;;;;;;;;;4956494;29;20071;-82
2022/04/16 16:30:41;;;;;;;3.33;1.30;;;;;;;;;;4956122;28;20557;-81
2022/04/16 16:33:09;;;;;;;4.05;2.00;;;;;;;;;;4955740;28;20042;-83
2022/04/16 16:35:34;;;;;;;4.82;1.70;;;;;;;;;;4958912;28;20096;-82
2022/04/16 16:37:59;;;;;;;2.53;1.17;;;;;;;;;;4959302;28;20027;-82
2022/04/16 16:40:25;;;;;;;3.17;1.37;;;;;;;;;;4957950;28;20388;-82